rusio

最新の値

Datetime Temperature Humidity Pressure
2021-06-19 20:32 26.49 55.8 999.05
2021-06-19 20:22 26.61 55.99 999.13
2021-06-19 20:12 26.72 56.02 999
2021-06-19 20:02 26.81 55.59 998.87
2021-06-19 19:52 26.67 54.86 998.85
2021-06-19 19:42 26.62 54.56 998.77
2021-06-19 19:32 26.52 54.68 998.7
2021-06-19 19:22 26.62 54.52 998.7
2021-06-19 19:12 26.77 54.19 998.68
2021-06-19 19:02 26.84 53.98 998.82
2021-06-19 18:52 26.68 53.88 998.88
2021-06-19 18:42 26.52 54.3 998.85
2021-06-19 18:32 26.33 54.77 998.83
2021-06-19 18:22 25.84 55.64 998.73
2021-06-19 18:12 26.1 54.96 998.68
2021-06-19 18:02 26.14 54.67 998.75
2021-06-19 17:52 26.04 55.46 998.76
2021-06-19 17:42 26.04 55.62 998.79
2021-06-19 17:32 25.71 57.15 998.89
2021-06-19 17:22 25.99 56.55 998.88
2021-06-19 17:12 25.86 57.83 998.97
2021-06-19 17:02 26 58.13 998.89
2021-06-19 16:52 26.29 56.91 998.86
2021-06-19 16:42 26.59 57.15 998.8
2021-06-19 16:32 27.47 55.47 998.83
2021-06-19 16:22 27.52 55.26 998.78
2021-06-19 16:12 27.18 56.24 998.78
2021-06-19 16:02 27.11 56.38 998.73
2021-06-19 15:52 27.13 57.11 998.72
2021-06-19 15:42 27.12 57.16 998.95
2021-06-19 15:32 26.86 57.63 998.9
2021-06-19 15:22 27.03 57.01 999.2
2021-06-19 15:12 27.05 56.75 999.38
2021-06-19 15:02 27.08 56.57 999.05
2021-06-19 14:52 26.84 57.08 999.09
2021-06-19 14:42 26.96 56.91 999.31
2021-06-19 14:32 26.99 56.89 999.27
2021-06-19 14:22 27.03 56.81 999.29
2021-06-19 14:12 27 57.23 999.42
2021-06-19 14:02 26.69 58.28 999.48
2021-06-19 13:52 26.37 59.37 999.55
2021-06-19 13:41 25.69 61.94 999.63
2021-06-19 13:31 25.01 64.68 999.75
2021-06-19 13:21 25.19 63.51 999.99
2021-06-19 13:11 24.83 65.36 999.97
2021-06-19 13:01 24.3 67.2 1000.16
2021-06-19 12:51 24.88 64.15 1000.23
2021-06-19 12:41 25.39 63.17 1000.25
2021-06-19 12:31 25.02 63.68 1000.38
2021-06-19 12:21 24.87 63.86 1000.61
2021-06-19 12:11 25.07 63.9 1000.76
2021-06-19 12:01 24.76 64.63 1000.82
2021-06-19 11:51 24.84 63.18 1000.76
2021-06-19 11:41 25.18 62.73 1000.7
2021-06-19 11:31 25.75 60.24 1000.91
2021-06-19 11:21 25.95 59.96 1001.17
2021-06-19 11:11 25.71 59.69 1001.24
2021-06-19 11:01 25.87 59.08 1001.21
2021-06-19 10:51 25.55 60.08 1001.26
2021-06-19 10:41 25.29 60.87 1001.42
2021-06-19 10:31 25.34 59.87 1001.47
2021-06-19 10:21 25.25 60.08 1001.5
2021-06-19 10:11 25.55 58.24 1001.66
2021-06-19 10:01 25.79 57.1 1001.79
2021-06-19 09:51 26.81 53.27 1001.9
2021-06-19 09:41 26.93 52.9 1002.02
2021-06-19 09:31 26.89 53.02 1001.95
2021-06-19 09:21 26.8 53.62 1001.75
2021-06-19 09:11 26.91 53.3 1001.75
2021-06-19 09:01 26.75 54.15 1001.75
2021-06-19 08:51 26.45 55.12 1001.98
2021-06-19 08:41 26.48 54.9 1001.98
2021-06-19 08:31 26.58 54.97 1002.09
2021-06-19 08:21 26.72 54.68 1002.07
2021-06-19 08:11 26.76 54.89 1002.02
2021-06-19 08:01 26.83 54.86 1001.98
2021-06-19 07:51 26.81 54.79 1001.92
2021-06-19 07:41 26.67 54.9 1001.97
2021-06-19 07:31 26.67 54.85 1001.83
2021-06-19 07:21 26.65 55.31 1001.88
2021-06-19 07:11 26.71 55.48 1001.76
2021-06-19 07:01 26.66 55.7 1001.57
2021-06-19 06:51 26.65 55.51 1001.59
2021-06-19 06:41 26.68 55.06 1001.55
2021-06-19 06:31 26.93 54.41 1001.6
2021-06-19 06:21 27.12 53.98 1001.43
2021-06-19 06:11 27.26 53.75 1001.44
2021-06-19 06:01 27.31 53.51 1001.33
2021-06-19 05:51 27.42 53.32 1001.45
2021-06-19 05:41 27.28 53.64 1001.33
2021-06-19 05:31 27.45 53.28 1001.2
2021-06-19 05:21 27.43 53.26 1001.37
2021-06-19 05:11 27.48 53 1001.34
2021-06-19 05:01 27.47 53.09 1001.43
2021-06-19 04:51 27.59 52.9 1001.35
2021-06-19 04:41 27.57 53.06 1001.4
2021-06-19 04:31 27.62 52.96 1001.19
2021-06-19 04:21 27.7 52.73 1001.03
2021-06-19 04:11 27.79 52.52 1001.2
2021-06-19 04:01 27.83 52.56 1001.21
2021-06-19 03:51 27.97 52.23 1001.28
2021-06-19 03:41 28 52.09 1001.2
2021-06-19 03:31 28.13 51.83 1001.14
2021-06-19 03:21 28.32 51.41 1001.12
2021-06-19 03:11 28.55 50.89 1001.07
2021-06-19 03:01 28.84 50.23 1001.17
2021-06-19 02:51 29.06 49.78 1001.14
2021-06-19 02:41 29.3 49.02 1001.17
2021-06-19 02:31 29.37 48.79 1001.12
2021-06-19 02:21 29.38 48.74 1001.12
2021-06-19 02:11 29.33 49.12 1001.27
2021-06-19 02:01 29.47 49.32 1001.36
2021-06-19 01:50 29.47 48.93 1001.34
2021-06-19 01:40 29.45 48.86 1001.27
2021-06-19 01:30 29.48 48.87 1001.09
2021-06-19 01:20 29.62 48.61 1000.97
2021-06-19 01:10 29.52 48.86 1000.95
2021-06-19 01:00 29.67 49.06 1000.96
2021-06-19 00:50 29.66 48.96 1000.85
2021-06-19 00:40 29.74 48.23 1000.92
2021-06-19 00:30 29.64 48.77 1001.27
2021-06-19 00:20 29.69 48.83 1001.38
2021-06-19 00:10 29.67 48.96 1001.49
2021-06-19 00:00 29.6 48.65 1001.5
2021-06-18 23:50 29.67 49.19 1001.49
2021-06-18 23:40 29.49 49.14 1001.59
2021-06-18 23:30 29.49 48.61 1001.76
2021-06-18 23:20 29.49 48.32 1001.76
2021-06-18 23:10 29.64 47.72 1001.73
2021-06-18 23:00 29.47 47.99 1001.77
2021-06-18 22:50 29.44 48.06 1001.79
2021-06-18 22:40 29.23 48.76 1001.74
2021-06-18 22:30 29.29 48.42 1001.96
2021-06-18 22:20 29.21 48.24 1002
2021-06-18 22:10 29.14 48.35 1002.17
2021-06-18 22:00 29.03 48.21 1002.26
2021-06-18 21:50 28.92 48.43 1002.36
2021-06-18 21:40 28.82 48.22 1002.39
2021-06-18 21:30 28.67 48.4 1002.48
2021-06-18 21:20 29.02 47.22 1002.65
2021-06-18 21:10 29.8 45.14 1002.78
2021-06-18 21:00 29.66 44.99 1002.79
2021-06-18 20:50 28.99 46.29 1002.77